createdAt,value
2019-03-25T00:01:31.552Z,55.00
2019-03-25T00:03:57.863Z,55.50
2019-03-25T00:06:24.202Z,55.70
2019-03-25T00:09:03.273Z,56.63
2019-03-25T00:11:16.836Z,55.78
2019-03-25T00:13:43.133Z,55.43
2019-03-25T00:16:09.449Z,56.18
2019-03-25T00:18:35.761Z,56.12
2019-03-25T00:21:02.066Z,57.23
2019-03-25T00:23:28.369Z,56.93
2019-03-25T00:25:54.687Z,55.92
2019-03-25T00:28:21.007Z,56.32
2019-03-25T00:30:47.320Z,56.07
2019-03-25T00:33:13.628Z,56.97
2019-03-25T00:35:39.971Z,57.38
2019-03-25T00:38:06.274Z,57.51
2019-03-25T00:40:32.581Z,56.10
2019-03-25T00:42:58.888Z,54.65
2019-03-25T00:45:25.192Z,54.37
2019-03-25T00:47:51.499Z,54.86
2019-03-25T00:50:17.804Z,55.66
2019-03-25T00:52:44.107Z,55.68
2019-03-25T00:55:10.412Z,55.72
2019-03-25T00:57:36.720Z,54.26
2019-03-25T01:00:03.025Z,56.55
2019-03-25T01:02:29.371Z,56.42
2019-03-25T01:04:55.676Z,56.34
2019-03-25T01:07:21.981Z,56.39
2019-03-25T01:09:48.287Z,55.73
2019-03-25T01:12:14.596Z,56.15
2019-03-25T01:14:40.902Z,58.47
2019-03-25T01:17:07.209Z,57.05
2019-03-25T01:19:33.525Z,57.21
2019-03-25T01:21:59.835Z,58.94
2019-03-25T01:24:26.194Z,58.51
2019-03-25T01:26:52.499Z,59.57
2019-03-25T01:29:18.804Z,60.25
2019-03-25T01:31:45.132Z,60.97
2019-03-25T01:34:11.439Z,59.67
2019-03-25T01:36:37.743Z,60.08
2019-03-25T01:39:04.052Z,59.36
2019-03-25T01:41:30.364Z,59.70
2019-03-25T01:43:56.670Z,60.33
2019-03-25T01:46:22.975Z,59.74
2019-03-25T01:48:49.283Z,60.33
2019-03-25T01:51:15.592Z,60.98
2019-03-25T01:53:41.900Z,62.37
2019-03-25T01:56:08.210Z,61.16
2019-03-25T01:58:34.539Z,61.40
2019-03-25T02:01:00.845Z,62.21
2019-03-25T02:03:27.156Z,61.15
2019-03-25T02:05:53.465Z,61.24
2019-03-25T02:08:19.763Z,61.52
2019-03-25T02:10:46.066Z,62.56
2019-03-25T02:13:12.372Z,62.78
2019-03-25T02:15:38.681Z,61.34
2019-03-25T02:18:04.988Z,61.37
2019-03-25T02:20:31.328Z,61.93
2019-03-25T02:22:57.807Z,62.73
2019-03-25T02:25:25.662Z,61.72
2019-03-25T02:27:50.248Z,61.59
2019-03-25T02:30:16.545Z,61.84
2019-03-25T02:32:42.846Z,61.93
2019-03-25T02:35:09.168Z,62.14
2019-03-25T02:37:35.474Z,62.24
2019-03-25T02:40:01.773Z,63.43
2019-03-25T02:42:28.103Z,63.16
2019-03-25T02:44:54.404Z,64.13
2019-03-25T02:47:20.718Z,63.84
2019-03-25T02:49:47.022Z,64.13
2019-03-25T02:52:13.320Z,63.24
2019-03-25T02:54:39.624Z,62.59
2019-03-25T02:57:05.933Z,62.97
2019-03-25T02:59:32.244Z,63.30
2019-03-25T03:01:58.551Z,63.50
2019-03-25T03:04:24.875Z,64.17
2019-03-25T03:06:51.177Z,64.33
2019-03-25T03:09:17.490Z,64.56
2019-03-25T03:11:43.786Z,64.82
2019-03-25T03:14:10.098Z,63.66
2019-03-25T03:16:36.417Z,63.61
2019-03-25T03:19:02.716Z,64.52
2019-03-25T03:21:29.014Z,64.18
2019-03-25T03:23:55.317Z,63.60
2019-03-25T03:26:21.631Z,63.18
2019-03-25T03:28:47.932Z,62.57
2019-03-25T03:31:14.242Z,62.62
2019-03-25T03:33:40.549Z,63.47
2019-03-25T03:36:06.846Z,63.69
2019-03-25T03:38:33.153Z,63.67
2019-03-25T03:40:59.458Z,63.48
2019-03-25T03:43:25.810Z,63.33
2019-03-25T03:45:52.135Z,63.08
2019-03-25T03:48:18.412Z,63.19
2019-03-25T03:50:44.748Z,63.33
2019-03-25T03:53:11.052Z,63.64
2019-03-25T03:55:37.360Z,63.71
2019-03-25T03:58:03.661Z,63.81
2019-03-25T04:00:29.967Z,63.67
2019-03-25T04:02:56.275Z,63.80
2019-03-25T04:05:22.589Z,64.45
2019-03-25T04:07:48.900Z,64.56
2019-03-25T04:10:15.242Z,64.71
2019-03-25T04:12:41.532Z,64.71
2019-03-25T04:15:07.863Z,65.37
2019-03-25T04:17:34.169Z,66.11
2019-03-25T04:20:00.530Z,65.75
2019-03-25T04:22:26.787Z,65.14
2019-03-25T04:24:53.075Z,65.57
2019-03-25T04:27:19.378Z,66.96
2019-03-25T04:29:45.677Z,66.08
2019-03-25T04:32:12.016Z,65.87
2019-03-25T04:34:38.323Z,65.64
2019-03-25T04:37:04.635Z,64.92
2019-03-25T04:39:30.942Z,64.07
2019-03-25T04:41:57.247Z,63.72
2019-03-25T04:44:23.555Z,63.53
2019-03-25T04:46:49.858Z,62.96
2019-03-25T04:49:16.183Z,62.45
2019-03-25T04:51:44.737Z,61.41
2019-03-25T04:54:08.781Z,60.97
2019-03-25T04:56:39.783Z,60.85
2019-03-25T04:59:01.395Z,59.88
2019-03-25T05:01:27.723Z,59.21
2019-03-25T05:03:54.028Z,57.92
2019-03-25T05:06:20.331Z,58.90
2019-03-25T05:08:46.640Z,58.36
2019-03-25T05:11:12.937Z,57.83
2019-03-25T05:13:39.245Z,57.11
2019-03-25T05:16:05.546Z,57.45
2019-03-25T05:18:31.863Z,56.65
2019-03-25T05:20:58.158Z,56.27
2019-03-25T05:23:24.497Z,56.44
2019-03-25T05:25:50.805Z,55.93
2019-03-25T05:28:17.121Z,55.71
2019-03-25T05:30:43.428Z,55.53
2019-03-25T05:33:09.730Z,55.04
2019-03-25T05:35:36.043Z,53.72
2019-03-25T05:38:02.356Z,53.00
2019-03-25T05:40:28.661Z,51.88
2019-03-25T05:42:54.969Z,52.07
2019-03-25T05:45:21.331Z,51.00
2019-03-25T05:47:47.640Z,51.81
2019-03-25T05:50:13.945Z,51.41
2019-03-25T05:52:40.251Z,52.28
2019-03-25T05:55:06.563Z,51.80
2019-03-25T05:57:32.879Z,50.85
2019-03-25T05:59:59.186Z,50.31
2019-03-25T06:02:25.500Z,49.39
2019-03-25T06:04:51.805Z,48.32
2019-03-25T06:07:18.140Z,48.46
2019-03-25T06:09:44.440Z,48.17
2019-03-25T06:12:10.745Z,48.71
2019-03-25T06:14:37.047Z,49.00
2019-03-25T06:17:03.352Z,48.43
2019-03-25T06:19:29.663Z,48.11
2019-03-25T06:21:55.962Z,48.46
2019-03-25T06:24:22.292Z,48.41
2019-03-25T06:26:48.606Z,48.15
2019-03-25T06:29:14.916Z,48.07
2019-03-25T06:31:41.225Z,48.01
2019-03-25T06:34:07.680Z,47.47
2019-03-25T06:36:33.991Z,46.88
2019-03-25T06:39:00.308Z,46.94
2019-03-25T06:41:26.627Z,46.56
2019-03-25T06:43:52.926Z,45.93
2019-03-25T06:46:19.233Z,45.98
2019-03-25T06:48:45.546Z,45.37
2019-03-25T06:51:11.852Z,45.81
2019-03-25T06:53:38.167Z,45.82
2019-03-25T06:56:04.582Z,45.13
2019-03-25T06:58:30.925Z,44.06
2019-03-25T07:00:57.237Z,43.29
2019-03-25T07:03:23.543Z,43.69
2019-03-25T07:05:49.882Z,44.18
2019-03-25T07:08:16.188Z,42.82
2019-03-25T07:10:42.501Z,41.91
2019-03-25T07:13:08.808Z,42.67
2019-03-25T07:15:35.118Z,42.63
2019-03-25T07:18:01.428Z,42.23
2019-03-25T07:20:27.782Z,41.47
2019-03-25T07:22:54.061Z,41.03
2019-03-25T07:25:20.417Z,40.75
2019-03-25T07:27:46.721Z,40.79
2019-03-25T07:30:13.062Z,40.78
2019-03-25T07:32:39.335Z,40.09
2019-03-25T07:35:05.715Z,40.54
2019-03-25T07:37:32.029Z,40.92
2019-03-25T07:39:58.333Z,40.15
2019-03-25T07:42:24.645Z,38.44
2019-03-25T07:44:50.953Z,38.75
2019-03-25T07:47:17.265Z,38.29
2019-03-25T07:49:43.572Z,38.48
2019-03-25T07:52:09.896Z,38.93
2019-03-25T07:54:36.216Z,38.34
2019-03-25T07:57:02.586Z,37.59
2019-03-25T07:59:28.878Z,36.47
2019-03-25T08:01:55.178Z,35.82
2019-03-25T08:04:21.487Z,35.46
2019-03-25T08:06:47.805Z,35.00
2019-03-25T08:09:14.109Z,34.96
2019-03-25T08:11:40.406Z,35.43
2019-03-25T08:14:06.751Z,34.60
2019-03-25T08:16:33.056Z,34.04
2019-03-25T08:18:59.392Z,34.17
2019-03-25T08:21:25.714Z,34.35
2019-03-25T08:23:52.022Z,34.14
2019-03-25T08:26:18.348Z,34.34
2019-03-25T08:28:44.764Z,33.89
2019-03-25T08:31:11.197Z,33.36
2019-03-25T08:33:37.505Z,34.34
2019-03-25T08:36:03.807Z,34.35
2019-03-25T08:38:30.123Z,33.71
2019-03-25T08:40:56.428Z,33.03
2019-03-25T08:43:22.794Z,32.96
2019-03-25T08:45:49.045Z,32.71
2019-03-25T08:48:15.357Z,32.55
2019-03-25T08:50:41.664Z,32.31
2019-03-25T08:53:07.987Z,31.91
2019-03-25T08:55:34.290Z,30.74
2019-03-25T08:58:11.494Z,30.70
2019-03-25T09:00:27.034Z,31.16
2019-03-25T09:02:53.281Z,31.85
2019-03-25T09:05:19.623Z,31.17
2019-03-25T09:07:45.929Z,30.87
2019-03-25T09:10:12.232Z,30.56
2019-03-25T09:12:38.543Z,30.69
2019-03-25T09:15:04.857Z,29.97
2019-03-25T09:17:31.360Z,31.04
2019-03-25T09:19:57.833Z,31.57
2019-03-25T09:22:24.140Z,31.08
2019-03-25T09:24:50.447Z,30.38
2019-03-25T09:27:16.751Z,30.05
2019-03-25T09:29:43.190Z,29.53
2019-03-25T09:32:09.530Z,29.56
2019-03-25T09:34:35.832Z,29.09
2019-03-25T09:37:02.144Z,29.58
2019-03-25T09:39:28.493Z,29.45
2019-03-25T09:41:54.792Z,29.28
2019-03-25T09:44:21.102Z,29.43
2019-03-25T09:52:07.038Z,28.33
2019-03-25T09:54:33.360Z,28.36
2019-03-25T09:56:59.662Z,28.15
2019-03-25T09:59:26.124Z,28.54
2019-03-25T10:01:52.429Z,28.48
2019-03-25T10:04:20.105Z,27.68
2019-03-25T10:06:45.081Z,27.43
2019-03-25T10:09:11.429Z,26.93
2019-03-25T10:11:37.738Z,27.80
2019-03-25T10:14:04.047Z,27.04
2019-03-25T10:16:30.356Z,27.05
2019-03-25T10:18:56.667Z,26.46
2019-03-25T10:21:22.981Z,26.42
2019-03-25T10:23:49.309Z,26.27
2019-03-25T10:26:15.638Z,26.19
2019-03-25T10:28:48.550Z,25.41
2019-03-25T10:31:08.258Z,26.19
2019-03-25T10:33:34.577Z,25.59
2019-03-25T10:36:00.888Z,25.82
2019-03-25T10:38:27.223Z,25.42
2019-03-25T10:40:53.533Z,25.63
2019-03-25T10:43:20.336Z,25.16
2019-03-25T10:45:46.665Z,25.82
2019-03-25T10:48:13.006Z,24.78
2019-03-25T10:50:39.310Z,24.92
2019-03-25T10:53:05.627Z,24.34
2019-03-25T10:55:31.942Z,24.33
2019-03-25T10:57:58.248Z,24.37
2019-03-25T11:00:24.566Z,24.05
2019-03-25T11:02:50.868Z,23.74
2019-03-25T11:05:17.179Z,24.49
2019-03-25T11:07:43.530Z,24.76
2019-03-25T11:10:09.794Z,23.97
2019-03-25T11:12:36.115Z,23.45
2019-03-25T11:15:02.421Z,22.84
2019-03-25T11:17:28.733Z,23.20
2019-03-25T11:19:55.037Z,22.38
2019-03-25T11:22:21.349Z,23.14
2019-03-25T11:24:47.669Z,22.95
2019-03-25T11:27:14.021Z,23.36
2019-03-25T11:29:40.330Z,22.94
2019-03-25T11:32:06.631Z,22.21
2019-03-25T11:34:32.959Z,22.66
2019-03-25T11:36:59.260Z,22.20
2019-03-25T11:39:25.611Z,22.65
2019-03-25T11:41:51.916Z,21.94
2019-03-25T11:44:18.252Z,22.01
2019-03-25T11:46:44.557Z,22.13
2019-03-25T11:49:10.894Z,22.28
2019-03-25T11:51:37.211Z,21.81
2019-03-25T11:54:03.524Z,21.63
2019-03-25T11:56:29.834Z,22.07
2019-03-25T11:58:56.139Z,21.16
2019-03-25T12:01:22.454Z,21.40
2019-03-25T12:03:48.752Z,21.45
2019-03-25T12:06:15.072Z,21.63
2019-03-25T12:08:41.385Z,21.23
2019-03-25T12:11:07.694Z,21.48
2019-03-25T12:13:34.055Z,21.30
2019-03-25T12:16:00.313Z,21.22
2019-03-25T12:18:26.633Z,20.73
2019-03-25T12:20:52.947Z,21.00
2019-03-25T12:23:26.233Z,20.45
2019-03-25T12:25:45.568Z,21.04
2019-03-25T12:28:11.908Z,20.97
2019-03-25T12:30:38.211Z,21.02
2019-03-25T12:33:04.597Z,20.60
2019-03-25T12:35:30.869Z,21.06
2019-03-25T12:37:57.224Z,20.87
2019-03-25T12:40:23.502Z,20.82
2019-03-25T12:42:49.808Z,21.18
2019-03-25T12:45:16.122Z,21.55
2019-03-25T12:47:42.425Z,21.35
2019-03-25T12:50:08.745Z,21.14
2019-03-25T12:52:35.066Z,21.62
2019-03-25T12:55:01.412Z,22.26
2019-03-25T12:57:27.771Z,22.98
2019-03-25T12:59:54.038Z,23.31
2019-03-25T13:02:20.365Z,23.38
2019-03-25T13:04:46.681Z,23.75
2019-03-25T13:07:12.997Z,23.50
2019-03-25T13:09:39.345Z,23.50
2019-03-25T13:12:05.622Z,23.62
2019-03-25T13:14:31.931Z,23.30
2019-03-25T13:16:58.300Z,23.42
2019-03-25T13:19:24.548Z,23.62
2019-03-25T13:21:50.857Z,23.99
2019-03-25T13:24:19.257Z,23.93
2019-03-25T13:26:43.486Z,23.85
2019-03-25T13:29:09.801Z,23.95
2019-03-25T13:31:36.122Z,23.73
2019-03-25T13:34:02.433Z,24.04
2019-03-25T13:36:28.752Z,23.47
2019-03-25T13:38:55.113Z,23.52
2019-03-25T13:41:21.416Z,24.09
2019-03-25T13:43:47.722Z,24.17
2019-03-25T13:46:14.033Z,24.29
2019-03-25T13:48:40.344Z,23.85
2019-03-25T13:51:06.698Z,24.26
2019-03-25T13:53:32.975Z,23.83
2019-03-25T13:55:59.289Z,24.15
2019-03-25T13:58:25.593Z,24.35
2019-03-25T14:00:51.951Z,24.40
2019-03-25T14:03:18.256Z,24.48
2019-03-25T14:05:44.564Z,24.27
2019-03-25T14:08:10.877Z,24.03
2019-03-25T14:10:37.185Z,24.19
2019-03-25T14:13:03.494Z,24.23
2019-03-25T14:15:29.799Z,23.49
2019-03-25T14:17:56.135Z,23.36
2019-03-25T14:20:22.440Z,22.88
2019-03-25T14:22:48.743Z,23.04
2019-03-25T14:25:15.052Z,22.89
2019-03-25T14:27:41.381Z,23.13
2019-03-25T14:30:14.367Z,22.84
2019-03-25T14:32:33.988Z,23.00
2019-03-25T14:35:00.366Z,23.28
2019-03-25T14:37:26.607Z,23.27
2019-03-25T14:39:52.916Z,22.94
2019-03-25T14:42:19.229Z,20.57
2019-03-25T14:44:45.576Z,20.98
2019-03-25T14:47:11.923Z,20.92
2019-03-25T14:49:38.196Z,21.01
2019-03-25T14:52:04.511Z,20.37
2019-03-25T14:54:30.812Z,20.01
2019-03-25T14:56:57.120Z,20.46
2019-03-25T14:59:23.427Z,20.39
2019-03-25T15:01:49.742Z,20.03
2019-03-25T15:04:16.047Z,20.97
2019-03-25T15:06:42.386Z,20.62
2019-03-25T15:09:08.699Z,20.34
2019-03-25T15:11:34.999Z,20.19
2019-03-25T15:14:01.337Z,20.81
2019-03-25T15:16:27.644Z,20.52
2019-03-25T15:18:53.952Z,20.70
2019-03-25T15:21:20.291Z,20.46
2019-03-25T15:23:46.640Z,20.49
2019-03-25T15:26:12.903Z,20.81
2019-03-25T15:28:39.244Z,21.10
2019-03-25T15:31:05.540Z,20.50
2019-03-25T15:33:31.856Z,20.42
2019-03-25T15:35:58.163Z,20.43
2019-03-25T15:38:25.565Z,20.79
2019-03-25T15:40:50.787Z,20.93
2019-03-25T15:43:17.093Z,21.26
2019-03-25T15:45:43.405Z,21.57
2019-03-25T15:48:09.711Z,21.34
2019-03-25T15:50:36.049Z,21.47
2019-03-25T15:53:02.364Z,21.66
2019-03-25T15:55:28.678Z,21.56
2019-03-25T15:57:55.024Z,21.69
2019-03-25T16:00:21.332Z,21.77
2019-03-25T16:02:47.633Z,22.14
2019-03-25T16:05:13.943Z,22.31
2019-03-25T16:07:40.262Z,22.36
2019-03-25T16:10:06.587Z,22.88
2019-03-25T16:12:32.902Z,22.93
2019-03-25T16:14:59.359Z,23.19
2019-03-25T16:17:25.689Z,22.81
2019-03-25T16:19:52.165Z,22.97
2019-03-25T16:22:18.519Z,23.28
2019-03-25T16:24:44.816Z,22.89
2019-03-25T16:27:11.117Z,22.95
2019-03-25T16:29:37.434Z,23.06
2019-03-25T16:32:03.757Z,23.40
2019-03-25T16:34:30.665Z,23.92
2019-03-25T16:36:56.975Z,23.75
2019-03-25T16:39:23.292Z,23.66
2019-03-25T16:41:49.618Z,23.48
2019-03-25T16:44:15.973Z,23.50
2019-03-25T16:46:42.282Z,23.97
2019-03-25T16:49:08.591Z,23.69
2019-03-25T16:51:34.902Z,23.35
2019-03-25T16:54:01.214Z,23.98
2019-03-25T16:56:27.525Z,24.46
2019-03-25T16:58:53.835Z,24.61
2019-03-25T17:01:20.146Z,24.01
2019-03-25T17:03:46.454Z,24.37
2019-03-25T17:06:12.762Z,23.95
2019-03-25T17:08:39.089Z,24.23
2019-03-25T17:11:05.463Z,24.15
2019-03-25T17:13:31.730Z,23.79
2019-03-25T17:15:58.043Z,23.72
2019-03-25T17:18:24.388Z,24.23
2019-03-25T17:20:50.701Z,24.95
2019-03-25T17:23:17.049Z,24.97
2019-03-25T17:25:52.670Z,25.91
2019-03-25T17:28:09.673Z,25.86
2019-03-25T17:30:35.992Z,26.49
2019-03-25T17:33:02.314Z,27.12
2019-03-25T17:35:28.921Z,27.49
2019-03-25T17:37:55.224Z,27.88
2019-03-25T17:40:21.569Z,28.48
2019-03-25T17:42:47.846Z,28.82
2019-03-25T17:45:14.181Z,29.39
2019-03-25T17:47:44.946Z,29.42
2019-03-25T17:50:11.275Z,29.70
2019-03-25T17:52:37.587Z,30.15
2019-03-25T17:55:03.893Z,29.98
2019-03-25T17:57:30.209Z,30.17
2019-03-25T17:59:56.525Z,30.40
2019-03-25T18:02:22.837Z,30.32
2019-03-25T18:04:49.144Z,30.53
2019-03-25T18:07:15.461Z,30.56
2019-03-25T18:09:41.800Z,30.61
2019-03-25T18:12:08.225Z,30.98
2019-03-25T18:14:34.546Z,31.21
2019-03-25T18:17:00.853Z,31.42
2019-03-25T18:19:27.172Z,31.57
2019-03-25T18:21:53.503Z,31.63
2019-03-25T18:24:19.808Z,31.78
2019-03-25T18:26:46.117Z,31.98
2019-03-25T18:29:12.425Z,32.24
2019-03-25T18:31:43.471Z,32.50
2019-03-25T18:34:05.051Z,32.89
2019-03-25T18:36:31.356Z,33.65
2019-03-25T18:38:57.659Z,33.64
2019-03-25T18:41:24.013Z,33.94
2019-03-25T18:43:50.321Z,34.46
2019-03-25T18:46:16.656Z,34.67
2019-03-25T18:48:42.987Z,35.30
2019-03-25T18:51:09.278Z,35.69
2019-03-25T18:53:35.729Z,36.52
2019-03-25T18:56:02.183Z,36.78
2019-03-25T18:58:28.526Z,36.86
2019-03-25T19:00:54.808Z,37.43
2019-03-25T19:03:21.128Z,38.07
2019-03-25T19:05:47.448Z,38.31
2019-03-25T19:08:13.782Z,38.76
2019-03-25T19:10:40.091Z,38.78
2019-03-25T19:13:06.418Z,39.11
2019-03-25T19:15:32.709Z,39.31
2019-03-25T19:17:59.055Z,39.56
2019-03-25T19:20:25.346Z,39.73
2019-03-25T19:22:51.659Z,39.79
2019-03-25T19:25:17.980Z,40.01
2019-03-25T19:27:44.331Z,40.24
2019-03-25T19:30:10.606Z,40.31
2019-03-25T19:32:37.065Z,40.42
2019-03-25T19:35:03.389Z,40.97
2019-03-25T19:37:29.766Z,41.15
2019-03-25T19:39:56.226Z,41.21
2019-03-25T19:42:22.535Z,41.33
2019-03-25T19:44:48.840Z,41.57
2019-03-25T19:47:15.171Z,41.80
2019-03-25T19:49:41.477Z,42.17
2019-03-25T19:52:09.489Z,42.70
2019-03-25T19:54:34.157Z,43.33
2019-03-25T19:57:00.514Z,43.69
2019-03-25T19:59:26.854Z,43.73
2019-03-25T20:01:53.102Z,43.88
2019-03-25T20:04:19.515Z,44.06
2019-03-25T20:06:45.871Z,44.19
2019-03-25T20:09:12.129Z,44.28
2019-03-25T20:11:38.449Z,44.16
2019-03-25T20:14:04.803Z,43.77
2019-03-25T20:16:31.139Z,44.08
2019-03-25T20:18:58.492Z,44.63
2019-03-25T20:21:24.800Z,44.57
2019-03-25T20:23:51.128Z,44.75
2019-03-25T20:26:17.444Z,44.87
2019-03-25T20:28:43.761Z,44.87
2019-03-25T20:31:10.064Z,45.03
2019-03-25T20:33:36.456Z,44.79
2019-03-25T20:36:02.817Z,44.88
2019-03-25T20:38:29.121Z,45.14
2019-03-25T20:40:55.473Z,45.14
2019-03-25T20:43:21.776Z,45.20
2019-03-25T20:45:48.104Z,44.96
2019-03-25T20:48:14.418Z,45.00
2019-03-25T20:50:40.816Z,44.99
2019-03-25T20:53:07.100Z,44.88
2019-03-25T20:55:33.382Z,44.94
2019-03-25T20:57:59.705Z,45.15
2019-03-25T21:00:25.977Z,45.15
2019-03-25T21:02:52.306Z,45.10
2019-03-25T21:05:18.603Z,45.14
2019-03-25T21:07:44.936Z,45.24
2019-03-25T21:10:11.314Z,45.15
2019-03-25T21:12:38.699Z,45.07
2019-03-25T21:15:03.931Z,45.00
2019-03-25T21:17:30.213Z,45.00
2019-03-25T21:19:56.554Z,45.22
2019-03-25T21:22:22.865Z,45.43
2019-03-25T21:24:49.214Z,45.38
2019-03-25T21:27:15.526Z,45.34
2019-03-25T21:29:41.869Z,45.37
2019-03-25T21:32:08.161Z,45.51
2019-03-25T21:34:34.509Z,45.46
2019-03-25T21:37:00.795Z,45.46
2019-03-25T21:39:27.134Z,45.39
2019-03-25T21:41:53.491Z,45.36
2019-03-25T21:44:19.873Z,45.45
2019-03-25T21:46:46.265Z,45.75
2019-03-25T21:49:12.491Z,45.83
2019-03-25T21:51:38.805Z,45.63
2019-03-25T21:54:05.110Z,45.80
2019-03-25T21:56:31.434Z,45.77
2019-03-25T21:59:00.319Z,45.71
2019-03-25T22:01:24.345Z,45.42
2019-03-25T22:03:50.653Z,45.28
2019-03-25T22:06:16.966Z,45.12
2019-03-25T22:08:43.283Z,44.91
2019-03-25T22:11:09.617Z,44.80
2019-03-25T22:13:35.910Z,44.70
2019-03-25T22:16:02.246Z,44.60
2019-03-25T22:18:30.713Z,44.59
2019-03-25T22:20:54.873Z,44.82
2019-03-25T22:23:21.185Z,44.87
2019-03-25T22:25:47.539Z,45.21
2019-03-25T22:28:13.853Z,45.66
2019-03-25T22:30:40.160Z,45.52
2019-03-25T22:33:06.474Z,45.90
2019-03-25T22:35:32.787Z,45.90
2019-03-25T22:37:59.131Z,45.82
2019-03-25T22:40:25.443Z,46.27
2019-03-25T22:42:51.748Z,46.43
2019-03-25T22:45:18.059Z,46.48
2019-03-25T22:47:44.365Z,45.87
2019-03-25T22:50:10.676Z,45.98
2019-03-25T22:52:36.981Z,45.76
2019-03-25T22:55:03.291Z,46.00
2019-03-25T22:57:29.596Z,46.48
2019-03-25T22:59:55.910Z,46.73
2019-03-25T23:02:22.275Z,46.22
2019-03-25T23:04:48.588Z,46.09
2019-03-25T23:07:14.896Z,46.49
2019-03-25T23:09:41.199Z,47.26
2019-03-25T23:12:07.506Z,47.09
2019-03-25T23:14:33.831Z,47.31
2019-03-25T23:17:00.141Z,47.79
2019-03-25T23:19:26.447Z,48.13
2019-03-25T23:21:52.767Z,48.43
2019-03-25T23:24:19.079Z,48.49
2019-03-25T23:26:45.392Z,48.55
2019-03-25T23:29:11.715Z,48.66
2019-03-25T23:31:38.022Z,48.64
2019-03-25T23:34:04.329Z,48.79
2019-03-25T23:36:30.637Z,48.81
2019-03-25T23:38:56.950Z,48.96
2019-03-25T23:41:23.264Z,48.94
2019-03-25T23:43:49.574Z,48.85
2019-03-25T23:46:15.885Z,49.31
2019-03-25T23:48:42.190Z,49.11
2019-03-25T23:51:08.521Z,49.11
2019-03-25T23:53:34.853Z,49.21
2019-03-25T23:56:01.155Z,49.18
2019-03-25T23:58:27.466Z,49.72
